Fryeburg, ME (04037)

4:14 PM EST on February 11, 2016 (GMT -0500)
lippers domain | | Change Station
CLOSE
Current Station
Personal Weather Station
Location: Fryeburg, ME
Elevation: 429 ft
Nearby Weather Stations

Elev 429 ft 44.01 °N, 70.97 °W | Updated 10 minutes ago

Overcast
Overcast
23.0 °F
Feels Like 17 °F
N
5.0
Wind Variable Wind from WNW
Gusts 9.0 mph

Today
High -- | Low -- °F
--% Chance of Precip.
Yesterday
High -- | Low -- °F
Precip. -- in
Pressure 29.68 in
Visibility 10.0 miles
Clouds Mostly Cloudy 6000 ft
Overcast 7500 ft
Windchill 17 °F
Dew Point 5 °F
Humidity 46%
Rainfall 0.00 in
Snow Depth Not available.
6:49 AM 5:07 PM
Waxing Crescent, 14% visible
METAR KIZG 112054Z AUTO 28008KT 10SM BKN060 OVC075 M04/M17 A2966 RMK AO2 SLP050 T10441172 53016
Pressure 29.68 in
Visibility 10.0 miles
Clouds Mostly Cloudy 6000 ft
Overcast 7500 ft
Windchill 17 °F
Dew Point 5 °F
Humidity 46%
Rainfall 0.00 in
Snow Depth Not available.
6:49 AM 5:07 PM
Waxing Crescent, 14% visible
METAR KIZG 112054Z AUTO 28008KT 10SM BKN060 OVC075 M04/M17 A2966 RMK AO2 SLP050 T10441172 53016

10-Day Weather Forecast

Almanac

Astronomy

Feb. 11, 2016 Rise Set
Actual Time
Civil Twilight
Nautical Twilight
Astronomical Twilight
Moon
Length of Visible Light
Length of Day
Tomorrow will be .
, % of the Moon is Illuminated

Today's Extremes

State Highs State Lows

Community

WunderPhotos

Upload Photos

1,892,159 photos uploaded!

WunderBlog® & News

Nearby

Air Quality

  Air Quality AQ Index Pollutant
Not available.

Snow Depth

Station Depth Elevation

Earthquake Activity

City Distance Mag. Time & Date
Minimum magnitude displayed is 2.5.

Coastal Water Temperatures

Place Temperature

Stations

Nearby Weather Stations

Station Location Temp. Windchill Dew Point Humidity Wind Precip. Elev Updated Type
                   

Watches & Warnings

There are currently no watches in effect.